Time;durP1;ratioP1;P1;durP2;ratioP2;P2;SDS_P1;SDS_P2;PMS_P1;PMS_P2;Temp;Humidity;BMP_temperature;BMP_pressure;BME280_temperature;BME280_humidity;BME280_pressure;Samples;Min_cycle;Max_cycle;Signal;HPM_P1;HPM_P2
2022/06/23 00:17:44;;;;;;;3.25;1.02;;;19.60;99.90;;;;;;5011779;28;20092;-90
2022/06/23 00:20:47;;;;;;;5.53;1.73;;;19.50;99.90;;;;;;4993678;28;20110;-91
2022/06/23 00:23:31;;;;;;;3.92;1.50;;;19.50;99.90;;;;;;4977334;28;20116;-91
2022/06/23 00:26:44;;;;;;;2.88;1.02;;;19.80;99.90;;;;;;4998491;28;20390;-92
2022/06/23 00:29:56;;;;;;;3.85;1.50;;;19.30;99.90;;;;;;4979615;28;20038;-91
2022/06/23 00:32:33;;;;;;;4.70;1.42;;;19.30;99.90;;;;;;5017051;28;20076;-90
2022/06/23 00:35:08;;;;;;;4.25;1.42;;;19.30;99.90;;;;;;4989086;28;20038;-91
2022/06/23 00:37:46;;;;;;;3.72;1.10;;;19.30;99.90;;;;;;4993323;28;20048;-91
2022/06/23 00:40:33;;;;;;;4.00;1.55;;;19.30;99.90;;;;;;5003931;28;20618;-91
2022/06/23 00:43:03;;;;;;;3.50;1.35;;;19.20;99.90;;;;;;4995412;28;20041;-91
2022/06/23 00:45:57;;;;;;;2.15;0.90;;;19.30;99.90;;;;;;4997245;28;20030;-91
2022/06/23 00:48:37;;;;;;;3.38;1.20;;;19.10;99.90;;;;;;5014130;28;20033;-91
2022/06/23 00:51:14;;;;;;;3.42;1.48;;;19.10;99.90;;;;;;4999357;28;20034;-91
2022/06/23 00:54:04;;;;;;;3.78;1.38;;;19.10;99.90;;;;;;5014695;28;20041;-90
2022/06/23 00:57:03;;;;;;;6.03;1.35;;;19.00;99.90;;;;;;5012579;28;20033;-90
2022/06/23 01:00:00;;;;;;;4.10;1.20;;;19.00;99.90;;;;;;4995475;28;20135;-91
2022/06/23 01:02:50;;;;;;;5.00;1.52;;;19.00;99.90;;;;;;4993710;28;20030;-92
2022/06/23 01:05:53;;;;;;;3.03;1.20;;;19.30;99.90;;;;;;4990531;28;20495;-90
2022/06/23 01:14:41;;;;;;;3.58;1.48;;;18.90;99.90;;;;;;4934812;29;20177;-91
2022/06/23 01:17:52;;;;;;;3.10;1.10;;;18.80;99.90;;;;;;4995412;28;20509;-91
2022/06/23 01:21:00;;;;;;;5.22;1.35;;;18.80;99.90;;;;;;5001907;28;20041;-91
2022/06/23 01:24:00;;;;;;;4.70;1.38;;;18.70;99.90;;;;;;4994525;28;20194;-91
2022/06/23 01:26:56;;;;;;;5.82;1.75;;;19.10;99.90;;;;;;4993943;28;20022;-91
2022/06/23 01:32:47;;;;;;;;;;;18.60;99.90;;;;;;5007061;28;20034;-91
2022/06/23 01:35:21;;;;;;;6.63;1.75;;;18.70;99.90;;;;;;5007533;28;20024;-90
2022/06/23 01:38:02;;;;;;;4.22;1.85;;;18.70;99.90;;;;;;4994876;28;20034;-91
2022/06/23 01:41:07;;;;;;;5.22;1.67;;;18.70;99.90;;;;;;5018500;28;20021;-91
2022/06/23 01:44:09;;;;;;;5.00;1.60;;;18.70;99.90;;;;;;5012027;28;20037;-89
2022/06/23 01:46:40;;;;;;;6.90;1.52;;;18.60;99.90;;;;;;4997153;28;20018;-92
2022/06/23 01:49:42;;;;;;;5.63;2.55;;;18.60;99.90;;;;;;4997590;28;20030;-91
2022/06/23 01:52:19;;;;;;;6.82;1.95;;;18.60;99.90;;;;;;4993800;28;20029;-90
2022/06/23 01:55:13;;;;;;;4.57;1.70;;;18.50;99.90;;;;;;4990496;28;20030;-92
2022/06/23 01:57:48;;;;;;;4.35;1.42;;;18.50;99.90;;;;;;4990567;28;20418;-91
2022/06/23 02:00:19;;;;;;;5.15;1.58;;;18.50;99.90;;;;;;5013125;28;20031;-91
2022/06/23 02:03:12;;;;;;;5.38;2.08;;;18.50;99.90;;;;;;4994802;28;20174;-91
2022/06/23 02:05:54;;;;;;;6.13;1.70;;;18.50;99.90;;;;;;4990657;28;20121;-91
2022/06/23 02:08:44;;;;;;;5.25;1.60;;;18.50;99.90;;;;;;5003580;28;20051;-91
2022/06/23 02:11:39;;;;;;;4.03;1.60;;;18.40;99.90;;;;;;5009130;28;20034;-91
2022/06/23 02:14:14;;;;;;;4.45;1.60;;;18.40;99.90;;;;;;4996032;28;20040;-91
2022/06/23 02:17:18;;;;;;;4.00;1.77;;;18.40;99.90;;;;;;5009348;28;20052;-90
2022/06/23 02:20:43;;;;;;;;;;;;;;;;;;;;;
2022/06/23 02:24:05;;;;;;;10.38;3.40;;;18.30;99.90;;;;;;5009841;28;20036;-91
2022/06/23 02:26:36;;;;;;;9.75;3.30;;;18.30;99.90;;;;;;4971577;28;20072;-91
2022/06/23 02:29:47;;;;;;;8.98;3.55;;;18.30;99.90;;;;;;4994568;28;20036;-91
2022/06/23 02:32:31;;;;;;;8.68;3.72;;;18.30;99.90;;;;;;4930910;29;20489;-89
2022/06/23 02:35:16;;;;;;;7.72;3.17;;;18.30;99.90;;;;;;5002477;28;20757;-91
2022/06/23 02:37:54;;;;;;;8.68;3.72;;;18.20;99.90;;;;;;4993660;28;20026;-90
2022/06/23 02:40:30;;;;;;;8.75;3.10;;;18.20;99.90;;;;;;4984365;28;20022;-91
2022/06/23 02:43:11;;;;;;;10.32;3.13;;;18.30;99.90;;;;;;4991576;28;20037;-90
2022/06/23 02:45:56;;;;;;;;;;;18.10;99.90;;;;;;5011930;28;20092;-90
2022/06/23 02:48:52;;;;;;;6.25;2.90;;;17.80;99.90;;;;;;5001906;28;19916;-91
2022/06/23 02:51:51;;;;;;;6.70;3.42;;;18.10;99.90;;;;;;4992871;28;20509;-90
2022/06/23 02:54:49;;;;;;;4.88;2.63;;;18.10;99.90;;;;;;5007077;28;20138;-90
2022/06/23 02:57:33;;;;;;;7.32;2.85;;;18.10;99.90;;;;;;5009018;28;20030;-90
2022/06/23 03:00:05;;;;;;;6.72;3.28;;;18.00;99.90;;;;;;4993339;28;20112;-90
2022/06/23 03:02:44;;;;;;;8.88;3.03;;;18.00;99.90;;;;;;5010905;28;20030;-90
2022/06/23 03:06:11;;;;;;;6.40;3.00;;;18.00;99.90;;;;;;4992265;28;20038;-91
2022/06/23 03:09:18;;;;;;;4.18;2.30;;;18.00;99.90;;;;;;4936931;28;20078;-91
2022/06/23 03:11:54;;;;;;;7.13;3.20;;;18.00;99.90;;;;;;4999169;28;20660;-89
2022/06/23 03:14:45;;;;;;;3.80;2.00;;;17.70;99.90;;;;;;4991013;28;20026;-91
2022/06/23 03:17:25;;;;;;;5.55;2.03;;;18.00;99.90;;;;;;5014403;28;20421;-90
2022/06/23 03:20:37;;;;;;;5.47;2.70;;;17.90;99.90;;;;;;4994866;28;20527;-91
2022/06/23 03:23:23;;;;;;;5.50;2.20;;;17.80;99.90;;;;;;4993076;28;20084;-92
2022/06/23 03:26:06;;;;;;;5.43;2.65;;;17.60;99.90;;;;;;4990784;28;20111;-91
2022/06/23 03:28:48;;;;;;;5.25;2.15;;;18.10;99.90;;;;;;4993968;28;20033;-90
2022/06/23 03:31:23;;;;;;;5.63;2.25;;;17.80;99.90;;;;;;5007002;28;20018;-90
2022/06/23 03:33:55;;;;;;;5.65;2.50;;;17.80;99.90;;;;;;4997768;28;20046;-91
2022/06/23 03:36:49;;;;;;;4.60;2.20;;;17.80;99.90;;;;;;5031180;28;20034;-90
2022/06/23 03:42:17;;;;;;;5.38;1.90;;;17.80;99.90;;;;;;5025246;28;20092;-90
2022/06/23 03:45:22;;;;;;;3.65;1.88;;;17.80;99.90;;;;;;5018664;28;20109;-90
2022/06/23 03:48:04;;;;;;;6.07;2.15;;;17.80;99.90;;;;;;4980230;28;20545;-91
2022/06/23 03:50:57;;;;;;;3.35;1.92;;;17.90;99.90;;;;;;5030039;28;20034;-90
2022/06/23 03:53:42;;;;;;;3.80;1.83;;;17.90;99.90;;;;;;5031189;28;20026;-88
2022/06/23 03:56:22;;;;;;;6.40;2.38;;;17.90;99.90;;;;;;5013491;28;20031;-90
2022/06/23 03:59:13;;;;;;;5.60;1.80;;;18.00;99.90;;;;;;5006658;28;20022;-91
2022/06/23 04:02:02;;;;;;;5.07;1.80;;;18.10;99.90;;;;;;5015299;28;20023;-89
2022/06/23 04:04:58;;;;;;;4.45;1.73;;;17.90;99.90;;;;;;5007877;28;20029;-90
2022/06/23 04:07:30;;;;;;;4.22;1.58;;;17.70;99.90;;;;;;5018362;28;20057;-90
2022/06/23 04:10:15;;;;;;;6.00;1.83;;;18.10;99.90;;;;;;5006661;28;20052;-90
2022/06/23 04:12:51;;;;;;;3.92;1.63;;;18.10;99.90;;;;;;5022687;28;20110;-90
2022/06/23 04:15:29;;;;;;;4.40;2.10;;;18.10;99.90;;;;;;5014210;28;20022;-89
2022/06/23 04:18:09;;;;;;;5.50;2.08;;;18.20;99.90;;;;;;5016039;28;20064;-90
2022/06/23 04:21:02;;;;;;;4.13;2.03;;;18.20;99.90;;;;;;5037643;28;20030;-90
2022/06/23 04:23:52;;;;;;;5.53;1.80;;;18.20;99.90;;;;;;5006577;28;21686;-90
2022/06/23 04:26:41;;;;;;;5.03;2.05;;;18.30;99.90;;;;;;5013880;28;20038;-91
2022/06/23 04:29:37;;;;;;;7.05;2.10;;;18.30;99.90;;;;;;5029088;28;20030;-90
2022/06/23 04:32:36;;;;;;;6.43;2.00;;;18.40;99.90;;;;;;5020095;28;20010;-91
2022/06/23 04:35:04;;;;;;;3.28;1.50;;;18.40;99.90;;;;;;5023736;28;20020;-90
2022/06/23 04:38:08;;;;;;;5.70;2.40;;;18.40;99.90;;;;;;5019557;28;20034;-90
2022/06/23 04:40:37;;;;;;;9.57;1.98;;;18.50;99.90;;;;;;5034348;28;20010;-90
2022/06/23 04:43:16;;;;;;;6.60;2.17;;;18.50;99.90;;;;;;5001406;28;20026;-90
2022/06/23 04:46:07;;;;;;;3.53;1.60;;;18.40;99.90;;;;;;4994267;28;20044;-90
2022/06/23 04:48:59;;;;;;;2.25;1.10;;;18.40;99.90;;;;;;4996586;28;20034;-90
2022/06/23 04:51:47;;;;;;;5.13;1.90;;;18.30;99.90;;;;;;5014886;28;20045;-90
2022/06/23 04:54:38;;;;;;;3.70;1.48;;;18.20;99.90;;;;;;4998678;23;20041;-88
2022/06/23 04:57:14;;;;;;;6.13;1.77;;;18.30;99.90;;;;;;4970492;28;20105;-90
2022/06/23 04:59:53;;;;;;;3.78;1.70;;;18.30;99.90;;;;;;4978256;28;20023;-90
2022/06/23 05:02:50;;;;;;;4.00;1.70;;;18.40;99.90;;;;;;4976618;28;20077;-90
2022/06/23 05:05:26;;;;;;;7.88;2.13;;;18.20;99.90;;;;;;4969640;28;20023;-90
2022/06/23 05:08:15;;;;;;;5.35;1.98;;;18.60;99.90;;;;;;4972384;28;20058;-90
2022/06/23 05:11:15;;;;;;;5.18;1.90;;;18.70;99.90;;;;;;4964861;28;20094;-90
2022/06/23 05:13:54;;;;;;;4.97;1.90;;;18.80;99.90;;;;;;4971424;28;20042;-89
2022/06/23 05:16:43;;;;;;;4.00;2.17;;;18.90;99.90;;;;;;4968595;28;20035;-89
2022/06/23 05:19:35;;;;;;;4.43;1.65;;;19.20;99.90;;;;;;4969958;28;20106;-90
2022/06/23 05:23:04;;;;;;;;;;;;;;;;;;;;;
2022/06/23 05:26:11;;;;;;;3.35;1.50;;;19.10;99.90;;;;;;4964860;28;20045;-89
2022/06/23 05:35:39;;;;;;;4.63;1.48;;;19.40;99.90;;;;;;4936839;28;20027;-90
2022/06/23 05:42:24;;;;;;;5.97;1.80;;;19.50;99.90;;;;;;4805651;29;20026;-91
2022/06/23 05:45:23;;;;;;;2.90;1.70;;;19.80;99.90;;;;;;4813237;29;20038;-90
2022/06/23 05:48:10;;;;;;;3.03;1.40;;;19.90;99.90;;;;;;4890698;29;20032;-89
2022/06/23 05:51:10;;;;;;;7.35;2.15;;;19.70;99.90;;;;;;4855542;29;20045;-90
2022/06/23 05:54:04;;;;;;;8.18;1.67;;;19.70;99.90;;;;;;4972072;28;20035;-90
2022/06/23 05:57:33;;;;;;;;;;;;;;;;;;;;;
2022/06/23 06:00:59;;;;;;;6.75;2.03;;;19.80;99.90;;;;;;4966043;28;20184;-90
2022/06/23 06:04:06;;;;;;;5.63;1.55;;;20.10;99.90;;;;;;4879571;29;20051;-89
2022/06/23 06:06:48;;;;;;;5.45;2.28;;;20.20;99.90;;;;;;4890689;29;20072;-90
2022/06/23 06:09:54;;;;;;;;;;;;;;;;;;;;;
2022/06/23 06:16:14;;;;;;;4.32;2.05;;;20.60;99.90;;;;;;5044881;22;20217;-92
2022/06/23 06:19:04;;;;;;;;;;;;;;;;;;;;;
2022/06/23 06:21:36;;;;;;;8.57;2.28;;;20.70;99.90;;;;;;5029231;28;20466;-94
2022/06/23 06:24:17;;;;;;;4.40;1.60;;;20.80;99.90;;;;;;5004965;28;20061;-93
2022/06/23 06:34:32;;;;;;;4.63;1.55;;;21.00;99.90;;;;;;4972067;28;20037;-92
2022/06/23 06:37:24;;;;;;;8.50;1.38;;;21.20;99.90;;;;;;4925987;29;20031;-93
2022/06/23 06:40:25;;;;;;;4.35;0.90;;;21.20;99.90;;;;;;4946914;28;20027;-92
2022/06/23 06:43:24;;;;;;;5.32;1.23;;;21.30;99.90;;;;;;4916048;28;20053;-92
2022/06/23 06:52:32;;;;;;;3.30;1.20;;;21.40;99.90;;;;;;4947246;28;20032;-93
2022/06/23 06:55:20;;;;;;;4.50;1.58;;;21.50;99.90;;;;;;4943417;28;20031;-93
2022/06/23 12:55:50;;;;;;;4.15;0.50;;;32.40;83.50;;;;;;5005925;28;20561;-90
2022/06/23 13:02:20;;;;;;;1.30;0.40;;;32.70;81.90;;;;;;4918949;29;20084;-91
2022/06/23 13:05:30;;;;;;;2.97;0.70;;;33.60;83.40;;;;;;4987425;23;20038;-92
2022/06/23 13:12:09;;;;;;;2.65;0.73;;;33.90;80.90;;;;;;5013399;28;20041;-90
2022/06/23 14:15:17;;;;;;;1.55;0.30;;;35.80;70.40;;;;;;5310825;22;20053;-88
2022/06/23 14:19:19;;;;;;;;;;;;;;;;;;;;;
2022/06/23 14:28:29;;;;;;;4.03;1.02;;;36.10;67.90;;;;;;5392554;22;20053;-91
2022/06/23 14:31:50;;;;;;;4.80;0.50;;;35.50;67.80;;;;;;4929637;28;20036;-90
2022/06/23 14:35:30;;;;;;;;;;;;;;;;;;;;;
2022/06/23 14:50:13;;;;;;;3.42;1.15;;;35.40;68.70;;;;;;4587921;26;20410;-89
2022/06/23 14:53:05;;;;;;;3.72;0.80;;;35.60;67.90;;;;;;5004198;28;20044;-90
2022/06/23 14:56:18;;;;;;;3.63;1.33;;;35.80;69.50;;;;;;4980357;28;20022;-89
2022/06/23 15:09:57;;;;;;;1.88;0.60;;;35.00;69.00;;;;;;4940369;28;20040;-90
2022/06/23 15:16:57;;;;;;;;;;;;;;;;;;;;;
2022/06/23 15:34:01;;;;;;;2.22;0.63;;;36.80;63.60;;;;;;4955956;28;20051;-91
2022/06/23 15:37:21;;;;;;;;;;;;;;;;;;;;;
2022/06/23 15:40:43;;;;;;;2.38;0.50;;;36.80;65.30;;;;;;5010976;28;21172;-90
2022/06/23 16:30:48;;;;;;;2.13;0.90;;;34.60;66.90;;;;;;5050228;28;20064;-88
2022/06/23 16:33:37;;;;;;;1.88;0.65;;;34.00;68.20;;;;;;5030074;28;20018;-87
2022/06/23 16:36:14;;;;;;;3.72;1.38;;;33.70;67.90;;;;;;5043636;28;20021;-87
2022/06/23 16:39:03;;;;;;;1.58;0.75;;;33.20;69.80;;;;;;5034248;28;20028;-87
2022/06/23 16:41:37;;;;;;;2.60;0.85;;;32.90;70.40;;;;;;5034046;28;20515;-87
2022/06/23 16:44:43;;;;;;;1.60;0.52;;;32.50;70.00;;;;;;5035203;28;20039;-87
2022/06/23 16:47:45;;;;;;;4.10;0.98;;;32.00;70.90;;;;;;5004990;28;20082;-87
2022/06/23 16:50:38;;;;;;;2.40;0.68;;;31.60;71.40;;;;;;5024641;28;20417;-86
2022/06/23 16:53:16;;;;;;;3.13;0.73;;;31.40;72.60;;;;;;5033094;28;20086;-87
2022/06/23 16:56:03;;;;;;;3.38;0.85;;;31.20;72.30;;;;;;5024704;28;20048;-87
2022/06/23 16:58:48;;;;;;;2.47;0.60;;;31.20;73.00;;;;;;5029434;28;20021;-88
2022/06/23 17:01:27;;;;;;;0.80;0.43;;;31.10;73.70;;;;;;5044602;28;20039;-86
2022/06/23 17:04:18;;;;;;;1.38;0.50;;;31.10;73.30;;;;;;5032807;28;20029;-87
2022/06/23 17:07:03;;;;;;;;;;;;;;;;;;;;;
2022/06/23 17:10:06;;;;;;;1.98;0.35;;;31.00;73.80;;;;;;5041551;28;20027;-88
2022/06/23 17:12:43;;;;;;;2.30;0.60;;;30.80;73.40;;;;;;5031161;28;20041;-87
2022/06/23 17:15:31;;;;;;;3.50;0.90;;;30.80;73.60;;;;;;5033211;28;20029;-87
2022/06/23 17:21:48;;;;;;;1.17;0.43;;;30.60;73.40;;;;;;5011759;28;20056;-86
2022/06/23 17:28:02;;;;;;;3.47;0.57;;;30.50;73.60;;;;;;4945932;28;20038;-86
2022/06/23 17:36:55;;;;;;;1.05;0.55;;;30.10;73.70;;;;;;5102221;22;20076;-87
2022/06/23 17:44:04;;;;;;;3.08;0.43;;;30.00;73.90;;;;;;4946419;28;20457;-88
2022/06/23 17:46:52;;;;;;;2.28;0.30;;;30.00;74.90;;;;;;4937177;28;20100;-88
2022/06/23 17:49:55;;;;;;;1.17;0.38;;;29.90;74.70;;;;;;4988816;28;20011;-87
2022/06/23 17:52:46;;;;;;;2.53;0.50;;;29.60;75.40;;;;;;5009272;28;20034;-88
2022/06/23 17:55:47;;;;;;;1.90;0.30;;;29.70;75.70;;;;;;5004534;28;20034;-88
2022/06/23 17:58:38;;;;;;;4.88;0.70;;;29.60;76.80;;;;;;5011076;28;20022;-88
2022/06/23 18:01:34;;;;;;;3.70;0.40;;;29.50;77.30;;;;;;4993508;28;20033;-87
2022/06/23 18:04:20;;;;;;;3.03;0.40;;;29.50;77.10;;;;;;4999985;28;20029;-89
2022/06/23 18:07:03;;;;;;;2.13;0.20;;;29.30;77.20;;;;;;4996537;28;20022;-88
2022/06/23 18:09:49;;;;;;;2.00;0.30;;;29.20;77.20;;;;;;5000813;28;20091;-88
2022/06/23 18:12:47;;;;;;;1.95;0.52;;;29.00;77.60;;;;;;4992160;28;20029;-88
2022/06/23 18:18:58;;;;;;;4.60;0.60;;;29.00;78.20;;;;;;5133588;22;20376;-90
2022/06/23 18:22:01;;;;;;;2.17;0.47;;;28.90;78.50;;;;;;4987985;28;20207;-90
2022/06/23 18:24:53;;;;;;;1.20;0.43;;;28.80;78.60;;;;;;4977968;28;20088;-90
2022/06/23 18:27:27;;;;;;;1.70;0.43;;;28.80;80.30;;;;;;4981552;28;20084;-89
2022/06/23 18:30:15;;;;;;;2.38;0.80;;;28.70;79.80;;;;;;4976642;28;20042;-91
2022/06/23 18:33:09;;;;;;;1.45;0.52;;;28.60;80.10;;;;;;4985583;28;20014;-91
2022/06/23 18:36:05;;;;;;;0.90;0.35;;;28.50;80.50;;;;;;4985239;28;20025;-90
2022/06/23 18:38:59;;;;;;;1.20;0.30;;;28.40;81.20;;;;;;4973703;28;20078;-91
2022/06/23 18:41:42;;;;;;;4.43;0.30;;;28.30;81.70;;;;;;4978296;28;20030;-90
2022/06/23 18:44:39;;;;;;;3.50;1.15;;;28.10;82.10;;;;;;4996081;28;20030;-90
2022/06/23 18:47:56;;;;;;;1.73;0.55;;;28.10;82.70;;;;;;4975616;28;20038;-89
2022/06/23 18:50:37;;;;;;;1.75;0.50;;;28.00;83.10;;;;;;4953274;28;20117;-89
2022/06/23 18:53:32;;;;;;;1.25;0.65;;;27.90;83.70;;;;;;4980961;28;20130;-89
2022/06/23 18:56:32;;;;;;;1.38;0.50;;;27.80;83.80;;;;;;4971858;28;20022;-89
2022/06/23 18:59:27;;;;;;;1.73;0.70;;;27.60;83.90;;;;;;4994899;28;20423;-89
2022/06/23 19:02:02;;;;;;;1.70;0.50;;;27.50;84.60;;;;;;4977176;28;20023;-90
2022/06/23 19:04:42;;;;;;;2.15;0.30;;;27.50;84.70;;;;;;4988163;28;20432;-90
2022/06/23 19:07:21;;;;;;;2.08;0.63;;;27.50;85.20;;;;;;4972596;28;20027;-89
2022/06/23 19:09:49;;;;;;;1.75;0.65;;;27.40;85.40;;;;;;4982948;28;20040;-90
2022/06/23 19:12:46;;;;;;;2.80;0.80;;;27.30;86.00;;;;;;4981009;28;20098;-90
2022/06/23 19:15:35;;;;;;;1.40;0.47;;;27.30;86.10;;;;;;4994195;28;20090;-90
2022/06/23 19:18:38;;;;;;;2.53;0.50;;;27.20;86.10;;;;;;4977997;28;20046;-90
2022/06/23 19:21:42;;;;;;;1.40;0.38;;;27.20;86.50;;;;;;4881941;29;20502;-86
2022/06/23 19:24:28;;;;;;;1.52;0.38;;;27.00;86.90;;;;;;4978806;28;20812;-89
2022/06/23 19:27:18;;;;;;;1.52;0.55;;;27.00;87.40;;;;;;4978838;28;20026;-90
2022/06/23 19:30:25;;;;;;;0.95;0.32;;;26.90;87.50;;;;;;4984258;28;20022;-90
2022/06/23 19:33:16;;;;;;;1.98;0.68;;;26.80;88.00;;;;;;4969797;28;20034;-89
2022/06/23 19:36:15;;;;;;;2.10;0.60;;;26.80;88.60;;;;;;4973679;28;20054;-90
2022/06/23 19:39:03;;;;;;;3.88;0.85;;;26.70;88.50;;;;;;5004742;28;20521;-90
2022/06/23 19:42:00;;;;;;;1.27;0.40;;;26.70;89.00;;;;;;4981224;28;20023;-89
2022/06/23 19:44:57;;;;;;;2.35;0.60;;;26.60;89.00;;;;;;4974072;28;20519;-90
2022/06/23 19:47:48;;;;;;;1.63;0.50;;;26.50;89.60;;;;;;4982024;28;20038;-91
2022/06/23 19:50:35;;;;;;;2.75;0.40;;;26.40;90.00;;;;;;4979253;28;20030;-90
2022/06/23 19:53:41;;;;;;;2.00;0.40;;;26.40;90.10;;;;;;4974925;28;20042;-90
2022/06/23 19:56:30;;;;;;;0.90;0.40;;;26.40;90.30;;;;;;4992830;28;20037;-90
2022/06/23 19:59:46;;;;;;;3.97;0.55;;;26.30;90.60;;;;;;4979163;28;20022;-90
2022/06/23 20:02:56;;;;;;;2.00;0.85;;;26.30;90.60;;;;;;5004162;28;20029;-90
2022/06/23 20:05:49;;;;;;;2.65;0.80;;;26.30;90.80;;;;;;4976464;28;20794;-91
2022/06/23 20:08:36;;;;;;;1.88;0.50;;;26.10;90.80;;;;;;4997473;28;20041;-91
2022/06/23 20:11:23;;;;;;;2.08;0.70;;;26.10;90.60;;;;;;4975098;28;20117;-90
2022/06/23 20:14:09;;;;;;;3.08;0.50;;;26.00;90.80;;;;;;4989149;28;20037;-89
2022/06/23 20:16:51;;;;;;;2.42;0.50;;;25.90;90.70;;;;;;4990000;28;20022;-89
2022/06/23 20:19:29;;;;;;;3.45;0.57;;;25.90;90.80;;;;;;4968266;28;20160;-90
2022/06/23 20:22:50;;;;;;;;;;;;;;;;;;;;;
2022/06/23 20:25:34;;;;;;;2.47;0.73;;;25.80;90.90;;;;;;4967732;28;20472;-90
2022/06/23 20:28:49;;;;;;;3.47;0.45;;;25.80;90.80;;;;;;4969275;28;20048;-89
2022/06/23 20:32:19;;;;;;;1.70;0.68;;;25.80;91.00;;;;;;4982706;28;20038;-90
2022/06/23 20:35:22;;;;;;;3.90;1.02;;;25.70;91.10;;;;;;4940960;29;20040;-89
2022/06/23 20:38:24;;;;;;;1.58;0.70;;;25.70;91.20;;;;;;4941531;28;20039;-90
2022/06/23 20:41:23;;;;;;;3.55;0.50;;;25.60;91.30;;;;;;4979098;28;20039;-90
2022/06/23 20:44:16;;;;;;;1.23;0.40;;;25.60;91.40;;;;;;4962447;28;20061;-89
2022/06/23 20:50:16;;;;;;;2.60;0.80;;;25.50;91.80;;;;;;4978608;28;20031;-90
2022/06/23 20:52:50;;;;;;;4.30;0.98;;;25.40;91.80;;;;;;4985348;28;20531;-90
2022/06/23 20:55:57;;;;;;;2.95;0.80;;;25.30;91.70;;;;;;4988235;28;20410;-88
2022/06/23 20:58:39;;;;;;;2.30;0.40;;;25.30;92.00;;;;;;4984461;28;20125;-90
2022/06/23 21:01:20;;;;;;;4.55;0.80;;;25.30;92.40;;;;;;4974803;28;20121;-90
2022/06/23 21:04:15;;;;;;;2.30;0.52;;;25.20;92.60;;;;;;4977526;28;20027;-91
2022/06/23 21:07:06;;;;;;;2.55;0.50;;;25.20;92.40;;;;;;4975229;28;20034;-91
2022/06/23 21:10:03;;;;;;;3.60;0.77;;;25.20;92.60;;;;;;4976049;28;20090;-90
2022/06/23 21:12:29;;;;;;;1.83;0.73;;;25.10;92.70;;;;;;4971212;28;20041;-89
2022/06/23 21:15:02;;;;;;;3.78;0.57;;;25.10;92.90;;;;;;4996977;28;20410;-90
2022/06/23 21:17:47;;;;;;;3.47;0.75;;;25.10;93.30;;;;;;4978096;28;20030;-90
2022/06/23 21:20:28;;;;;;;4.97;0.70;;;25.10;93.00;;;;;;4990100;28;20041;-89
2022/06/23 21:23:26;;;;;;;1.58;0.52;;;25.10;93.10;;;;;;4988921;28;20027;-90
2022/06/23 21:26:09;;;;;;;1.63;0.40;;;25.10;93.00;;;;;;4973248;28;20045;-90
2022/06/23 21:28:59;;;;;;;2.58;0.93;;;24.70;94.30;;;;;;4968810;28;20480;-90
2022/06/23 21:31:29;;;;;;;1.52;0.30;;;24.00;95.50;;;;;;4969547;28;20034;-90
2022/06/23 21:34:02;;;;;;;3.50;0.52;;;23.80;95.40;;;;;;4995107;28;20048;-90
2022/06/23 21:36:33;;;;;;;2.15;0.35;;;23.50;96.00;;;;;;4972309;28;20053;-90
2022/06/23 21:39:07;;;;;;;4.70;0.53;;;23.20;96.30;;;;;;4979561;28;20026;-89
2022/06/23 21:41:49;;;;;;;2.05;0.65;;;23.10;96.40;;;;;;4971533;28;21036;-89
2022/06/23 21:44:32;;;;;;;0.55;0.15;;;22.80;96.20;;;;;;4983275;28;20031;-90
2022/06/23 21:47:24;;;;;;;1.17;0.20;;;22.60;96.70;;;;;;4989247;28;20066;-89
2022/06/23 21:50:23;;;;;;;1.45;0.10;;;22.30;96.90;;;;;;4970060;28;20022;-88
2022/06/23 21:53:01;;;;;;;3.15;0.20;;;22.10;97.30;;;;;;4983502;28;20053;-89
2022/06/23 21:55:53;;;;;;;0.08;0.00;;;22.10;97.70;;;;;;4987020;28;20098;-89
2022/06/23 21:58:50;;;;;;;0.95;0.10;;;22.10;97.70;;;;;;4993770;28;20030;-90
2022/06/23 22:01:35;;;;;;;0.10;0.00;;;22.00;98.10;;;;;;4990222;28;20022;-89
2022/06/23 22:04:14;;;;;;;0.17;0.10;;;21.80;98.60;;;;;;4978204;28;20057;-88
2022/06/23 22:06:47;;;;;;;1.90;0.28;;;21.70;99.00;;;;;;4993895;28;20022;-88
2022/06/23 22:09:34;;;;;;;1.27;0.10;;;21.50;99.50;;;;;;4973798;28;20372;-89
2022/06/23 22:12:01;;;;;;;0.32;0.20;;;21.50;99.90;;;;;;4977236;28;20038;-89
2022/06/23 22:14:38;;;;;;;0.20;0.00;;;21.40;99.90;;;;;;4977994;28;20045;-89
2022/06/23 22:17:10;;;;;;;0.50;0.10;;;21.30;99.90;;;;;;4978615;28;20038;-89
2022/06/23 22:19:42;;;;;;;0.38;0.20;;;20.60;99.90;;;;;;4977409;28;20501;-89
2022/06/23 22:22:24;;;;;;;0.47;0.10;;;20.60;99.90;;;;;;4986521;28;20117;-89
2022/06/23 22:27:49;;;;;;;2.00;0.30;;;20.10;99.90;;;;;;4998277;28;20525;-89
2022/06/23 22:30:30;;;;;;;;;;;20.00;99.90;;;;;;4978723;28;20034;-89
2022/06/23 22:32:56;;;;;;;2.35;0.32;;;20.10;99.90;;;;;;4964799;28;19961;-89
2022/06/23 22:35:32;;;;;;;1.75;0.40;;;20.00;99.90;;;;;;4975396;28;20053;-90
2022/06/23 22:37:57;;;;;;;1.42;0.40;;;20.00;99.90;;;;;;4991178;28;20118;-89
2022/06/23 22:40:31;;;;;;;1.40;0.22;;;19.80;99.90;;;;;;4980834;28;20462;-90
2022/06/23 22:43:29;;;;;;;2.40;0.40;;;19.40;99.90;;;;;;4993747;28;20022;-91
2022/06/23 22:46:04;;;;;;;0.93;0.30;;;19.60;99.90;;;;;;4982676;28;20027;-90
2022/06/23 22:48:50;;;;;;;0.70;0.55;;;19.30;99.90;;;;;;4988140;28;20027;-91
2022/06/23 22:51:19;;;;;;;1.77;0.20;;;19.30;99.90;;;;;;4994630;28;20040;-91
2022/06/23 22:53:59;;;;;;;2.67;0.63;;;19.40;99.90;;;;;;4978801;28;20061;-91
2022/06/23 22:56:42;;;;;;;1.58;0.30;;;19.50;99.90;;;;;;4964070;28;20060;-90
2022/06/23 22:59:10;;;;;;;0.70;0.20;;;19.50;99.90;;;;;;4979689;28;20407;-90
2022/06/23 23:02:07;;;;;;;0.68;0.10;;;19.50;99.90;;;;;;4973932;28;20523;-90
2022/06/23 23:04:32;;;;;;;0.68;0.10;;;19.60;99.90;;;;;;4928496;28;20046;-91
2022/06/23 23:06:58;;;;;;;0.10;0.10;;;19.60;99.90;;;;;;4980319;28;20504;-90
2022/06/23 23:09:25;;;;;;;1.08;0.20;;;19.50;99.90;;;;;;4977139;28;20097;-90
2022/06/23 23:11:52;;;;;;;1.83;0.28;;;19.50;99.90;;;;;;4976601;28;20036;-90
2022/06/23 23:14:27;;;;;;;1.05;0.20;;;19.50;99.90;;;;;;4976264;28;20041;-90
2022/06/23 23:16:52;;;;;;;3.05;0.22;;;19.30;99.90;;;;;;4971040;28;20038;-90
2022/06/23 23:19:24;;;;;;;1.08;0.50;;;19.40;99.90;;;;;;4984251;28;20030;-91
2022/06/23 23:21:50;;;;;;;1.85;0.30;;;19.40;99.90;;;;;;4977454;28;20121;-91
2022/06/23 23:24:34;;;;;;;1.92;0.60;;;19.50;99.90;;;;;;4978450;28;20112;-91
2022/06/23 23:27:06;;;;;;;0.70;0.25;;;19.70;99.90;;;;;;4981923;28;20526;-91
2022/06/23 23:29:34;;;;;;;0.40;0.20;;;19.60;99.90;;;;;;4982967;28;20035;-91
2022/06/23 23:32:18;;;;;;;1.13;0.40;;;19.60;99.90;;;;;;4977258;28;20054;-91
2022/06/23 23:34:48;;;;;;;1.98;0.22;;;19.70;99.90;;;;;;4975476;28;20096;-92
2022/06/23 23:37:14;;;;;;;1.02;0.30;;;19.60;99.90;;;;;;4963746;28;20034;-90
2022/06/23 23:39:59;;;;;;;0.98;0.30;;;19.60;99.90;;;;;;4979227;28;20395;-91
2022/06/23 23:42:26;;;;;;;0.93;0.30;;;19.80;99.90;;;;;;4974702;28;20061;-91
2022/06/23 23:44:52;;;;;;;0.93;0.20;;;19.80;99.90;;;;;;4977426;28;20022;-90
2022/06/23 23:47:43;;;;;;;4.15;0.22;;;19.80;99.90;;;;;;4982984;28;20025;-91
2022/06/23 23:50:14;;;;;;;1.48;0.30;;;19.90;99.90;;;;;;5001011;28;20094;-91
2022/06/23 23:52:44;;;;;;;0.52;0.20;;;20.00;99.90;;;;;;4991849;28;20033;-91
2022/06/23 23:55:11;;;;;;;1.10;0.20;;;20.00;99.90;;;;;;4984001;28;20033;-92
2022/06/23 23:57:41;;;;;;;1.17;0.28;;;20.10;99.90;;;;;;4982886;28;20050;-91
